sensor_id;sensor_type;location;lat;lon;timestamp;noise_LAeq;noise_LA_min;noise_LA_max;noise_LA01;noise_LA95
49568;Laerm;35474;51.032;6.998;2023-11-19T00:01:05;65.73;47.98;82.21;;
49568;Laerm;35474;51.032;6.998;2023-11-19T00:03:32;62.02;48.37;70.19;;
49568;Laerm;35474;51.032;6.998;2023-11-19T00:06:00;64.24;47.51;76.10;;
49568;Laerm;35474;51.032;6.998;2023-11-19T00:08:29;62.54;47.90;76.08;;
49568;Laerm;35474;51.032;6.998;2023-11-19T00:10:55;62.60;48.12;81.40;;
49568;Laerm;35474;51.032;6.998;2023-11-19T00:13:22;61.52;47.14;71.04;;
49568;Laerm;35474;51.032;6.998;2023-11-19T00:15:49;64.70;46.82;86.68;;
49568;Laerm;35474;51.032;6.998;2023-11-19T00:18:16;65.27;46.40;87.20;;
49568;Laerm;35474;51.032;6.998;2023-11-19T00:20:42;64.76;47.52;87.12;;
49568;Laerm;35474;51.032;6.998;2023-11-19T00:23:11;61.33;46.93;76.86;;
49568;Laerm;35474;51.032;6.998;2023-11-19T00:25:37;60.30;46.64;70.08;;
49568;Laerm;35474;51.032;6.998;2023-11-19T00:28:05;63.92;47.22;81.80;;
49568;Laerm;35474;51.032;6.998;2023-11-19T00:30:31;62.86;46.28;88.63;;
49568;Laerm;35474;51.032;6.998;2023-11-19T00:32:58;60.08;47.65;71.17;;
49568;Laerm;35474;51.032;6.998;2023-11-19T00:35:27;62.89;47.30;73.12;;
49568;Laerm;35474;51.032;6.998;2023-11-19T00:37:53;59.84;46.43;70.78;;
49568;Laerm;35474;51.032;6.998;2023-11-19T00:40:20;59.93;47.04;70.86;;
49568;Laerm;35474;51.032;6.998;2023-11-19T00:42:49;61.67;46.95;72.21;;
49568;Laerm;35474;51.032;6.998;2023-11-19T00:45:16;60.11;46.36;70.13;;
49568;Laerm;35474;51.032;6.998;2023-11-19T00:47:43;58.20;45.60;73.00;;
49568;Laerm;35474;51.032;6.998;2023-11-19T00:50:12;57.33;46.23;67.16;;
49568;Laerm;35474;51.032;6.998;2023-11-19T00:52:40;61.44;46.40;75.10;;
49568;Laerm;35474;51.032;6.998;2023-11-19T00:55:08;56.85;46.28;66.85;;
49568;Laerm;35474;51.032;6.998;2023-11-19T01:00:34;59.00;45.73;71.67;;
49568;Laerm;35474;51.032;6.998;2023-11-19T01:03:01;55.66;46.40;67.66;;
49568;Laerm;35474;51.032;6.998;2023-11-19T01:05:28;55.12;46.10;69.19;;
49568;Laerm;35474;51.032;6.998;2023-11-19T01:07:54;57.33;46.40;69.44;;
49568;Laerm;35474;51.032;6.998;2023-11-19T01:10:21;62.44;46.35;73.82;;
49568;Laerm;35474;51.032;6.998;2023-11-19T01:12:48;63.70;45.91;76.01;;
49568;Laerm;35474;51.032;6.998;2023-11-19T01:15:16;56.56;45.60;68.83;;
49568;Laerm;35474;51.032;6.998;2023-11-19T01:17:48;60.76;45.86;71.78;;
49568;Laerm;35474;51.032;6.998;2023-11-19T01:20:18;58.13;46.08;70.54;;
49568;Laerm;35474;51.032;6.998;2023-11-19T01:22:44;59.16;46.45;77.11;;
49568;Laerm;35474;51.032;6.998;2023-11-19T01:25:13;60.12;46.79;72.72;;
49568;Laerm;35474;51.032;6.998;2023-11-19T01:27:40;62.57;46.28;72.84;;
49568;Laerm;35474;51.032;6.998;2023-11-19T01:30:07;52.10;46.15;69.11;;
49568;Laerm;35474;51.032;6.998;2023-11-19T01:32:36;54.45;45.33;67.22;;
49568;Laerm;35474;51.032;6.998;2023-11-19T01:35:03;58.55;45.23;70.15;;
49568;Laerm;35474;51.032;6.998;2023-11-19T01:37:30;57.95;45.72;72.86;;
49568;Laerm;35474;51.032;6.998;2023-11-19T01:39:58;58.99;45.36;74.14;;
49568;Laerm;35474;51.032;6.998;2023-11-19T01:42:25;52.51;44.62;66.15;;
49568;Laerm;35474;51.032;6.998;2023-11-19T01:44:59;50.82;44.97;65.91;;
49568;Laerm;35474;51.032;6.998;2023-11-19T01:47:30;60.01;44.94;70.62;;
49568;Laerm;35474;51.032;6.998;2023-11-19T01:49:57;54.26;44.69;72.56;;
49568;Laerm;35474;51.032;6.998;2023-11-19T01:52:25;56.44;44.27;68.77;;
49568;Laerm;35474;51.032;6.998;2023-11-19T01:54:53;62.58;44.58;74.65;;
49568;Laerm;35474;51.032;6.998;2023-11-19T01:57:22;58.09;44.83;70.53;;
49568;Laerm;35474;51.032;6.998;2023-11-19T01:59:51;54.18;44.19;68.57;;
49568;Laerm;35474;51.032;6.998;2023-11-19T02:02:18;50.10;44.19;60.27;;
49568;Laerm;35474;51.032;6.998;2023-11-19T02:04:50;57.26;44.15;72.24;;
49568;Laerm;35474;51.032;6.998;2023-11-19T02:07:17;52.56;43.81;64.69;;
49568;Laerm;35474;51.032;6.998;2023-11-19T02:09:44;54.66;44.07;65.68;;
49568;Laerm;35474;51.032;6.998;2023-11-19T02:12:20;62.27;44.58;74.79;;
49568;Laerm;35474;51.032;6.998;2023-11-19T02:14:47;60.29;44.43;72.60;;
49568;Laerm;35474;51.032;6.998;2023-11-19T02:17:30;47.15;43.24;57.55;;
49568;Laerm;35474;51.032;6.998;2023-11-19T02:20:00;58.01;43.94;71.82;;
49568;Laerm;35474;51.032;6.998;2023-11-19T02:22:27;56.84;44.03;67.09;;
49568;Laerm;35474;51.032;6.998;2023-11-19T02:25:00;53.49;43.58;66.66;;
49568;Laerm;35474;51.032;6.998;2023-11-19T02:30:05;59.27;43.34;70.67;;
49568;Laerm;35474;51.032;6.998;2023-11-19T02:32:34;55.81;43.58;66.21;;
49568;Laerm;35474;51.032;6.998;2023-11-19T02:35:02;56.41;43.19;74.16;;
49568;Laerm;35474;51.032;6.998;2023-11-19T02:37:32;52.55;42.82;66.99;;
49568;Laerm;35474;51.032;6.998;2023-11-19T02:39:58;45.64;42.29;60.12;;
49568;Laerm;35474;51.032;6.998;2023-11-19T02:42:35;44.53;42.41;51.53;;
49568;Laerm;35474;51.032;6.998;2023-11-19T02:45:02;57.12;42.98;72.91;;
49568;Laerm;35474;51.032;6.998;2023-11-19T02:47:33;57.85;42.76;75.46;;
49568;Laerm;35474;51.032;6.998;2023-11-19T02:50:01;56.64;42.22;67.14;;
49568;Laerm;35474;51.032;6.998;2023-11-19T02:52:28;56.46;42.59;70.38;;
49568;Laerm;35474;51.032;6.998;2023-11-19T02:54:55;57.87;43.04;70.25;;
49568;Laerm;35474;51.032;6.998;2023-11-19T02:57:22;58.20;43.63;72.36;;
49568;Laerm;35474;51.032;6.998;2023-11-19T02:59:49;46.49;43.19;64.24;;
49568;Laerm;35474;51.032;6.998;2023-11-19T03:02:15;58.24;43.04;71.01;;
49568;Laerm;35474;51.032;6.998;2023-11-19T03:04:46;60.80;43.81;77.37;;
49568;Laerm;35474;51.032;6.998;2023-11-19T03:07:12;57.43;43.63;67.83;;
49568;Laerm;35474;51.032;6.998;2023-11-19T03:09:40;57.62;44.27;70.54;;
49568;Laerm;35474;51.032;6.998;2023-11-19T03:12:07;53.68;43.99;69.95;;
49568;Laerm;35474;51.032;6.998;2023-11-19T03:14:33;57.35;44.47;71.46;;
49568;Laerm;35474;51.032;6.998;2023-11-19T03:17:03;59.57;43.54;71.84;;
49568;Laerm;35474;51.032;6.998;2023-11-19T03:19:31;59.59;43.34;77.10;;
49568;Laerm;35474;51.032;6.998;2023-11-19T03:21:58;56.44;43.58;69.44;;
49568;Laerm;35474;51.032;6.998;2023-11-19T03:24:26;58.96;42.42;72.37;;
49568;Laerm;35474;51.032;6.998;2023-11-19T03:26:52;56.57;42.29;70.83;;
49568;Laerm;35474;51.032;6.998;2023-11-19T03:29:19;57.12;43.19;68.40;;
49568;Laerm;35474;51.032;6.998;2023-11-19T03:31:45;55.48;42.93;70.01;;
49568;Laerm;35474;51.032;6.998;2023-11-19T03:34:12;44.63;42.47;51.37;;
49568;Laerm;35474;51.032;6.998;2023-11-19T03:36:39;55.64;42.88;72.30;;
49568;Laerm;35474;51.032;6.998;2023-11-19T03:39:06;61.11;43.04;76.90;;
49568;Laerm;35474;51.032;6.998;2023-11-19T03:41:33;61.18;43.49;74.90;;
49568;Laerm;35474;51.032;6.998;2023-11-19T03:44:02;58.70;42.09;75.42;;
49568;Laerm;35474;51.032;6.998;2023-11-19T03:46:28;55.87;41.30;77.55;;
49568;Laerm;35474;51.032;6.998;2023-11-19T03:48:56;80.27;43.19;101.68;;
49568;Laerm;35474;51.032;6.998;2023-11-19T03:51:23;80.31;42.35;103.19;;
49568;Laerm;35474;51.032;6.998;2023-11-19T03:53:49;63.92;42.03;84.63;;
49568;Laerm;35474;51.032;6.998;2023-11-19T03:56:16;50.06;41.68;69.26;;
49568;Laerm;35474;51.032;6.998;2023-11-19T03:58:43;69.22;41.61;91.66;;
49568;Laerm;35474;51.032;6.998;2023-11-19T04:01:12;53.32;40.53;77.67;;
49568;Laerm;35474;51.032;6.998;2023-11-19T04:03:42;54.79;41.46;69.45;;
49568;Laerm;35474;51.032;6.998;2023-11-19T04:06:12;44.98;41.61;64.35;;
49568;Laerm;35474;51.032;6.998;2023-11-19T04:08:38;58.13;42.53;69.84;;
49568;Laerm;35474;51.032;6.998;2023-11-19T04:11:05;53.80;43.14;68.45;;
49568;Laerm;35474;51.032;6.998;2023-11-19T04:13:32;57.96;43.34;70.30;;
49568;Laerm;35474;51.032;6.998;2023-11-19T04:15:59;58.10;42.93;77.32;;
49568;Laerm;35474;51.032;6.998;2023-11-19T04:18:26;56.73;42.53;77.03;;
49568;Laerm;35474;51.032;6.998;2023-11-19T04:20:53;57.51;42.29;81.18;;
49568;Laerm;35474;51.032;6.998;2023-11-19T04:23:19;54.82;41.75;73.39;;
49568;Laerm;35474;51.032;6.998;2023-11-19T04:25:46;58.59;42.59;71.19;;
49568;Laerm;35474;51.032;6.998;2023-11-19T04:28:13;63.14;42.35;84.57;;
49568;Laerm;35474;51.032;6.998;2023-11-19T04:30:39;59.32;42.35;80.30;;
49568;Laerm;35474;51.032;6.998;2023-11-19T04:33:06;56.28;42.53;81.30;;
49568;Laerm;35474;51.032;6.998;2023-11-19T04:35:32;55.13;41.68;76.25;;
49568;Laerm;35474;51.032;6.998;2023-11-19T04:37:59;59.92;43.24;81.91;;
49568;Laerm;35474;51.032;6.998;2023-11-19T04:40:25;61.71;41.88;85.43;;
49568;Laerm;35474;51.032;6.998;2023-11-19T04:42:52;56.53;42.82;69.61;;
49568;Laerm;35474;51.032;6.998;2023-11-19T04:45:18;64.37;44.73;86.92;;
49568;Laerm;35474;51.032;6.998;2023-11-19T04:47:46;64.95;41.82;82.90;;
49568;Laerm;35474;51.032;6.998;2023-11-19T04:50:13;66.34;43.44;88.55;;
49568;Laerm;35474;51.032;6.998;2023-11-19T04:52:39;55.39;41.75;75.96;;
49568;Laerm;35474;51.032;6.998;2023-11-19T04:55:07;58.30;42.16;83.48;;
49568;Laerm;35474;51.032;6.998;2023-11-19T04:57:33;59.49;43.34;77.36;;
49568;Laerm;35474;51.032;6.998;2023-11-19T05:00:00;60.07;42.47;77.24;;
49568;Laerm;35474;51.032;6.998;2023-11-19T05:02:27;56.82;42.29;74.13;;
49568;Laerm;35474;51.032;6.998;2023-11-19T05:04:53;59.23;42.71;78.83;;
49568;Laerm;35474;51.032;6.998;2023-11-19T05:07:20;57.79;42.47;75.80;;
49568;Laerm;35474;51.032;6.998;2023-11-19T05:09:47;62.28;42.98;85.67;;
49568;Laerm;35474;51.032;6.998;2023-11-19T05:12:13;56.22;41.06;76.87;;
49568;Laerm;35474;51.032;6.998;2023-11-19T05:14:40;64.85;41.75;89.01;;
49568;Laerm;35474;51.032;6.998;2023-11-19T05:17:06;60.44;43.04;84.01;;
49568;Laerm;35474;51.032;6.998;2023-11-19T05:19:34;58.78;41.68;75.63;;
49568;Laerm;35474;51.032;6.998;2023-11-19T05:22:01;66.83;42.35;88.68;;
49568;Laerm;35474;51.032;6.998;2023-11-19T05:24:27;61.68;43.29;84.96;;
49568;Laerm;35474;51.032;6.998;2023-11-19T05:26:54;61.49;42.69;81.99;;
49568;Laerm;35474;51.032;6.998;2023-11-19T05:29:20;64.37;42.82;89.61;;
49568;Laerm;35474;51.032;6.998;2023-11-19T05:31:47;65.80;42.76;87.48;;
49568;Laerm;35474;51.032;6.998;2023-11-19T05:34:14;68.08;42.64;93.15;;
49568;Laerm;35474;51.032;6.998;2023-11-19T05:36:41;72.67;42.09;98.23;;
49568;Laerm;35474;51.032;6.998;2023-11-19T05:39:08;77.44;42.09;96.66;;
49568;Laerm;35474;51.032;6.998;2023-11-19T05:41:34;68.70;42.93;96.21;;
49568;Laerm;35474;51.032;6.998;2023-11-19T05:44:01;64.67;43.68;90.69;;
49568;Laerm;35474;51.032;6.998;2023-11-19T05:46:28;66.49;43.24;89.26;;
49568;Laerm;35474;51.032;6.998;2023-11-19T05:48:55;74.63;42.47;97.00;;
49568;Laerm;35474;51.032;6.998;2023-11-19T05:51:21;58.66;42.53;70.76;;
49568;Laerm;35474;51.032;6.998;2023-11-19T05:53:50;59.94;43.44;79.97;;
49568;Laerm;35474;51.032;6.998;2023-11-19T05:56:16;60.81;43.24;85.75;;
49568;Laerm;35474;51.032;6.998;2023-11-19T05:58:47;71.88;43.34;95.83;;
49568;Laerm;35474;51.032;6.998;2023-11-19T06:01:15;64.43;42.41;86.04;;
49568;Laerm;35474;51.032;6.998;2023-11-19T06:03:43;58.76;44.11;75.93;;
49568;Laerm;35474;51.032;6.998;2023-11-19T06:06:10;82.58;43.34;105.20;;
49568;Laerm;35474;51.032;6.998;2023-11-19T06:08:37;73.47;43.68;92.94;;
49568;Laerm;35474;51.032;6.998;2023-11-19T06:11:04;61.87;42.41;81.73;;
49568;Laerm;35474;51.032;6.998;2023-11-19T06:13:30;68.18;43.39;89.12;;
49568;Laerm;35474;51.032;6.998;2023-11-19T06:15:59;63.82;43.09;87.83;;
49568;Laerm;35474;51.032;6.998;2023-11-19T06:18:28;74.81;44.15;97.87;;
49568;Laerm;35474;51.032;6.998;2023-11-19T06:20:54;78.22;43.68;103.50;;
49568;Laerm;35474;51.032;6.998;2023-11-19T06:23:21;76.17;43.90;95.51;;
49568;Laerm;35474;51.032;6.998;2023-11-19T06:25:48;61.24;43.04;83.49;;
49568;Laerm;35474;51.032;6.998;2023-11-19T06:28:15;59.83;44.07;84.45;;
49568;Laerm;35474;51.032;6.998;2023-11-19T06:30:42;83.15;45.94;100.54;;
49568;Laerm;35474;51.032;6.998;2023-11-19T06:33:14;64.98;44.54;87.16;;
49568;Laerm;35474;51.032;6.998;2023-11-19T06:35:41;78.24;46.30;99.31;;
49568;Laerm;35474;51.032;6.998;2023-11-19T06:38:08;73.79;44.11;94.34;;
49568;Laerm;35474;51.032;6.998;2023-11-19T06:40:36;70.24;43.72;91.64;;
49568;Laerm;35474;51.032;6.998;2023-11-19T06:43:03;78.26;45.57;100.58;;
49568;Laerm;35474;51.032;6.998;2023-11-19T06:45:30;73.72;43.54;97.57;;
49568;Laerm;35474;51.032;6.998;2023-11-19T06:47:57;77.84;44.62;98.10;;
49568;Laerm;35474;51.032;6.998;2023-11-19T06:50:25;70.59;44.39;89.43;;
49568;Laerm;35474;51.032;6.998;2023-11-19T06:52:51;60.84;42.82;84.10;;
49568;Laerm;35474;51.032;6.998;2023-11-19T06:55:18;67.80;45.27;91.44;;
49568;Laerm;35474;51.032;6.998;2023-11-19T06:57:45;70.04;45.45;93.35;;
49568;Laerm;35474;51.032;6.998;2023-11-19T07:00:12;70.01;46.15;91.58;;
49568;Laerm;35474;51.032;6.998;2023-11-19T07:02:39;62.85;44.76;80.88;;
49568;Laerm;35474;51.032;6.998;2023-11-19T07:05:06;75.02;44.43;94.12;;
49568;Laerm;35474;51.032;6.998;2023-11-19T07:07:34;66.89;44.45;90.70;;
49568;Laerm;35474;51.032;6.998;2023-11-19T07:10:02;69.35;44.76;94.91;;
49568;Laerm;35474;51.032;6.998;2023-11-19T07:12:33;67.34;43.68;90.56;;
49568;Laerm;35474;51.032;6.998;2023-11-19T07:15:02;71.03;45.99;94.06;;
49568;Laerm;35474;51.032;6.998;2023-11-19T07:17:30;75.56;44.03;99.93;;
49568;Laerm;35474;51.032;6.998;2023-11-19T07:19:57;71.18;43.63;92.65;;
49568;Laerm;35474;51.032;6.998;2023-11-19T07:22:26;61.90;44.23;82.59;;
49568;Laerm;35474;51.032;6.998;2023-11-19T07:24:56;68.73;43.14;94.30;;
49568;Laerm;35474;51.032;6.998;2023-11-19T07:27:22;71.31;44.07;92.71;;
49568;Laerm;35474;51.032;6.998;2023-11-19T07:32:34;65.10;44.65;85.98;;
49568;Laerm;35474;51.032;6.998;2023-11-19T07:35:01;64.25;43.72;85.53;;
49568;Laerm;35474;51.032;6.998;2023-11-19T07:37:28;65.47;46.02;89.97;;
49568;Laerm;35474;51.032;6.998;2023-11-19T07:39:57;67.80;43.77;89.08;;
49568;Laerm;35474;51.032;6.998;2023-11-19T07:42:25;72.83;44.54;96.51;;
49568;Laerm;35474;51.032;6.998;2023-11-19T07:44:52;67.51;46.40;89.03;;
49568;Laerm;35474;51.032;6.998;2023-11-19T07:47:20;71.89;47.50;93.99;;
49568;Laerm;35474;51.032;6.998;2023-11-19T07:49:53;75.15;47.86;96.61;;
49568;Laerm;35474;51.032;6.998;2023-11-19T07:52:19;64.69;44.65;86.43;;
49568;Laerm;35474;51.032;6.998;2023-11-19T07:54:47;74.68;49.39;99.76;;
49568;Laerm;35474;51.032;6.998;2023-11-19T07:57:14;74.27;44.73;93.14;;
49568;Laerm;35474;51.032;6.998;2023-11-19T07:59:41;63.93;44.76;83.97;;
49568;Laerm;35474;51.032;6.998;2023-11-19T08:02:08;64.01;50.36;77.36;;
49568;Laerm;35474;51.032;6.998;2023-11-19T08:04:35;75.91;46.25;100.35;;
49568;Laerm;35474;51.032;6.998;2023-11-19T08:07:02;80.19;45.83;103.62;;
49568;Laerm;35474;51.032;6.998;2023-11-19T08:09:28;72.24;46.78;94.31;;
49568;Laerm;35474;51.032;6.998;2023-11-19T08:11:55;66.70;47.38;86.94;;
49568;Laerm;35474;51.032;6.998;2023-11-19T08:14:22;66.42;45.45;86.79;;
49568;Laerm;35474;51.032;6.998;2023-11-19T08:16:50;71.32;45.42;93.13;;
49568;Laerm;35474;51.032;6.998;2023-11-19T08:19:17;63.91;44.94;82.08;;
49568;Laerm;35474;51.032;6.998;2023-11-19T08:21:43;66.05;45.36;92.53;;
49568;Laerm;35474;51.032;6.998;2023-11-19T08:24:12;64.20;46.15;86.07;;
49568;Laerm;35474;51.032;6.998;2023-11-19T08:26:39;65.68;49.74;86.38;;
49568;Laerm;35474;51.032;6.998;2023-11-19T08:29:05;71.57;45.30;92.53;;
49568;Laerm;35474;51.032;6.998;2023-11-19T08:31:32;73.67;51.01;96.29;;
49568;Laerm;35474;51.032;6.998;2023-11-19T08:33:58;74.76;47.83;97.10;;
49568;Laerm;35474;51.032;6.998;2023-11-19T08:36:25;65.85;44.73;90.42;;
49568;Laerm;35474;51.032;6.998;2023-11-19T08:38:51;67.84;47.28;93.16;;
49568;Laerm;35474;51.032;6.998;2023-11-19T08:41:18;66.27;44.47;86.10;;
49568;Laerm;35474;51.032;6.998;2023-11-19T08:43:45;68.18;51.91;94.29;;
49568;Laerm;35474;51.032;6.998;2023-11-19T08:46:13;66.24;45.48;87.43;;
49568;Laerm;35474;51.032;6.998;2023-11-19T08:48:40;71.23;48.16;92.54;;
49568;Laerm;35474;51.032;6.998;2023-11-19T08:51:07;76.37;49.88;102.17;;
49568;Laerm;35474;51.032;6.998;2023-11-19T08:53:33;66.83;46.02;86.95;;
49568;Laerm;35474;51.032;6.998;2023-11-19T08:56:01;66.80;47.55;87.04;;
49568;Laerm;35474;51.032;6.998;2023-11-19T08:58:29;69.66;49.34;91.98;;
49568;Laerm;35474;51.032;6.998;2023-11-19T09:00:56;70.89;48.60;91.78;;
49568;Laerm;35474;51.032;6.998;2023-11-19T09:03:23;78.97;47.06;99.33;;
49568;Laerm;35474;51.032;6.998;2023-11-19T09:05:53;74.23;47.00;95.01;;
49568;Laerm;35474;51.032;6.998;2023-11-19T09:08:19;69.34;46.13;88.40;;
49568;Laerm;35474;51.032;6.998;2023-11-19T09:10:46;70.65;47.08;90.17;;
49568;Laerm;35474;51.032;6.998;2023-11-19T09:13:13;73.06;50.55;95.85;;
49568;Laerm;35474;51.032;6.998;2023-11-19T09:15:39;66.92;45.77;86.16;;
49568;Laerm;35474;51.032;6.998;2023-11-19T09:18:06;66.81;45.75;90.26;;
49568;Laerm;35474;51.032;6.998;2023-11-19T09:20:32;74.63;46.64;99.63;;
49568;Laerm;35474;51.032;6.998;2023-11-19T09:23:05;81.50;50.02;104.06;;
49568;Laerm;35474;51.032;6.998;2023-11-19T09:25:32;67.21;45.63;90.07;;
49568;Laerm;35474;51.032;6.998;2023-11-19T09:28:02;77.93;47.10;100.11;;
49568;Laerm;35474;51.032;6.998;2023-11-19T09:30:31;72.67;45.17;96.09;;
49568;Laerm;35474;51.032;6.998;2023-11-19T09:33:00;66.24;46.50;86.35;;
49568;Laerm;35474;51.032;6.998;2023-11-19T09:35:28;66.33;53.19;90.52;;
49568;Laerm;35474;51.032;6.998;2023-11-19T09:37:54;68.75;47.68;92.09;;
49568;Laerm;35474;51.032;6.998;2023-11-19T09:40:21;72.52;49.85;96.16;;
49568;Laerm;35474;51.032;6.998;2023-11-19T09:42:48;75.29;47.22;96.90;;
49568;Laerm;35474;51.032;6.998;2023-11-19T09:45:16;73.07;47.68;95.64;;
49568;Laerm;35474;51.032;6.998;2023-11-19T09:47:44;70.71;46.35;99.27;;
49568;Laerm;35474;51.032;6.998;2023-11-19T09:50:19;69.67;49.63;93.43;;
49568;Laerm;35474;51.032;6.998;2023-11-19T09:52:46;72.85;48.64;98.72;;
49568;Laerm;35474;51.032;6.998;2023-11-19T09:55:13;67.46;50.82;88.55;;
49568;Laerm;35474;51.032;6.998;2023-11-19T09:57:41;75.88;49.58;97.95;;
49568;Laerm;35474;51.032;6.998;2023-11-19T10:00:08;71.56;48.42;93.06;;
49568;Laerm;35474;51.032;6.998;2023-11-19T10:02:37;66.67;55.24;82.21;;
49568;Laerm;35474;51.032;6.998;2023-11-19T10:05:11;71.19;56.51;92.51;;
49568;Laerm;35474;51.032;6.998;2023-11-19T10:07:40;67.73;53.71;86.72;;
49568;Laerm;35474;51.032;6.998;2023-11-19T10:10:07;70.06;46.97;91.06;;
49568;Laerm;35474;51.032;6.998;2023-11-19T10:12:35;75.14;50.64;98.87;;
49568;Laerm;35474;51.032;6.998;2023-11-19T10:15:01;69.43;50.20;89.54;;
49568;Laerm;35474;51.032;6.998;2023-11-19T10:17:28;68.57;53.43;87.41;;
49568;Laerm;35474;51.032;6.998;2023-11-19T10:19:58;68.20;53.82;94.67;;
49568;Laerm;35474;51.032;6.998;2023-11-19T10:22:27;69.81;46.10;94.66;;
49568;Laerm;35474;51.032;6.998;2023-11-19T10:24:53;73.21;47.14;95.75;;
49568;Laerm;35474;51.032;6.998;2023-11-19T10:27:24;77.05;46.48;95.94;;
49568;Laerm;35474;51.032;6.998;2023-11-19T10:29:51;67.45;47.02;88.36;;
49568;Laerm;35474;51.032;6.998;2023-11-19T10:32:18;76.62;49.60;99.70;;
49568;Laerm;35474;51.032;6.998;2023-11-19T10:35:04;69.63;46.28;90.09;;
49568;Laerm;35474;51.032;6.998;2023-11-19T10:37:32;75.67;50.49;100.11;;
49568;Laerm;35474;51.032;6.998;2023-11-19T10:39:59;75.26;51.00;100.82;;
49568;Laerm;35474;51.032;6.998;2023-11-19T10:42:26;71.95;48.71;96.47;;
49568;Laerm;35474;51.032;6.998;2023-11-19T10:44:53;77.99;50.77;100.26;;
49568;Laerm;35474;51.032;6.998;2023-11-19T10:47:22;78.64;53.69;102.64;;
49568;Laerm;35474;51.032;6.998;2023-11-19T10:49:57;71.51;51.31;93.80;;
49568;Laerm;35474;51.032;6.998;2023-11-19T10:52:26;70.82;51.82;93.24;;
49568;Laerm;35474;51.032;6.998;2023-11-19T10:54:55;67.57;52.21;85.14;;
49568;Laerm;35474;51.032;6.998;2023-11-19T10:57:30;66.42;47.90;90.38;;
49568;Laerm;35474;51.032;6.998;2023-11-19T11:00:03;81.33;50.82;106.28;;
49568;Laerm;35474;51.032;6.998;2023-11-19T11:02:40;69.98;52.04;88.88;;
49568;Laerm;35474;51.032;6.998;2023-11-19T11:05:09;72.59;52.04;94.51;;
49568;Laerm;35474;51.032;6.998;2023-11-19T11:07:39;68.87;50.55;90.95;;
49568;Laerm;35474;51.032;6.998;2023-11-19T11:10:07;73.24;56.06;93.39;;
49568;Laerm;35474;51.032;6.998;2023-11-19T11:12:36;67.47;51.94;86.00;;
49568;Laerm;35474;51.032;6.998;2023-11-19T11:15:11;79.03;49.55;100.02;;
49568;Laerm;35474;51.032;6.998;2023-11-19T11:17:39;71.05;46.96;89.62;;
49568;Laerm;35474;51.032;6.998;2023-11-19T11:20:08;68.28;47.30;97.51;;
49568;Laerm;35474;51.032;6.998;2023-11-19T11:22:49;66.60;47.08;87.05;;
49568;Laerm;35474;51.032;6.998;2023-11-19T11:28:26;70.00;50.49;90.63;;
49568;Laerm;35474;51.032;6.998;2023-11-19T11:31:08;77.61;53.24;98.84;;
49568;Laerm;35474;51.032;6.998;2023-11-19T11:36:25;79.64;48.84;103.14;;
49568;Laerm;35474;51.032;6.998;2023-11-19T11:38:53;70.70;52.21;91.19;;
49568;Laerm;35474;51.032;6.998;2023-11-19T11:41:24;73.91;47.02;94.54;;
49568;Laerm;35474;51.032;6.998;2023-11-19T11:43:55;65.65;54.07;80.31;;
49568;Laerm;35474;51.032;6.998;2023-11-19T11:49:09;74.66;49.50;95.26;;
49568;Laerm;35474;51.032;6.998;2023-11-19T11:54:11;82.56;53.01;104.19;;
49568;Laerm;35474;51.032;6.998;2023-11-19T11:56:39;78.15;56.02;99.53;;
49568;Laerm;35474;51.032;6.998;2023-11-19T11:59:18;68.61;48.13;90.40;;
49568;Laerm;35474;51.032;6.998;2023-11-19T12:02:00;74.68;51.64;96.21;;
49568;Laerm;35474;51.032;6.998;2023-11-19T12:04:27;71.38;47.08;90.19;;
49568;Laerm;35474;51.032;6.998;2023-11-19T12:07:16;69.92;48.67;92.73;;
49568;Laerm;35474;51.032;6.998;2023-11-19T12:10:06;84.64;50.84;102.84;;
49568;Laerm;35474;51.032;6.998;2023-11-19T12:12:34;76.15;50.06;97.03;;
49568;Laerm;35474;51.032;6.998;2023-11-19T12:15:03;80.81;50.30;100.17;;
49568;Laerm;35474;51.032;6.998;2023-11-19T12:20:00;77.11;49.94;98.30;;
49568;Laerm;35474;51.032;6.998;2023-11-19T12:22:27;77.24;47.91;98.62;;
49568;Laerm;35474;51.032;6.998;2023-11-19T12:24:54;65.44;49.44;88.81;;
49568;Laerm;35474;51.032;6.998;2023-11-19T12:27:21;72.49;47.14;92.80;;
49568;Laerm;35474;51.032;6.998;2023-11-19T12:29:50;79.56;49.15;100.64;;
49568;Laerm;35474;51.032;6.998;2023-11-19T12:32:17;81.54;52.07;102.51;;
49568;Laerm;35474;51.032;6.998;2023-11-19T12:34:45;77.33;51.37;96.29;;
49568;Laerm;35474;51.032;6.998;2023-11-19T12:37:12;73.81;53.20;95.84;;
49568;Laerm;35474;51.032;6.998;2023-11-19T12:39:39;67.84;52.72;87.50;;
49568;Laerm;35474;51.032;6.998;2023-11-19T12:42:06;70.70;54.29;89.44;;
49568;Laerm;35474;51.032;6.998;2023-11-19T12:44:33;75.81;47.36;100.97;;
49568;Laerm;35474;51.032;6.998;2023-11-19T12:47:05;73.14;46.25;97.92;;
49568;Laerm;35474;51.032;6.998;2023-11-19T12:49:33;70.91;51.60;91.43;;
49568;Laerm;35474;51.032;6.998;2023-11-19T12:52:00;66.78;50.55;92.12;;
49568;Laerm;35474;51.032;6.998;2023-11-19T12:54:36;69.72;49.24;89.91;;
49568;Laerm;35474;51.032;6.998;2023-11-19T12:57:04;68.91;49.64;96.06;;
49568;Laerm;35474;51.032;6.998;2023-11-19T12:59:34;81.76;49.83;106.43;;
49568;Laerm;35474;51.032;6.998;2023-11-19T13:02:01;79.26;53.42;100.64;;
49568;Laerm;35474;51.032;6.998;2023-11-19T13:04:31;74.04;50.17;97.46;;
49568;Laerm;35474;51.032;6.998;2023-11-19T13:07:00;73.87;52.57;94.42;;
49568;Laerm;35474;51.032;6.998;2023-11-19T13:09:31;75.59;49.52;95.26;;
49568;Laerm;35474;51.032;6.998;2023-11-19T13:11:59;67.52;47.38;84.52;;
49568;Laerm;35474;51.032;6.998;2023-11-19T13:14:36;73.69;52.94;98.94;;
49568;Laerm;35474;51.032;6.998;2023-11-19T13:17:04;75.58;51.28;97.04;;
49568;Laerm;35474;51.032;6.998;2023-11-19T13:19:32;68.84;49.90;90.17;;
49568;Laerm;35474;51.032;6.998;2023-11-19T13:21:58;71.10;50.74;98.74;;
49568;Laerm;35474;51.032;6.998;2023-11-19T13:24:25;69.63;47.77;95.82;;
49568;Laerm;35474;51.032;6.998;2023-11-19T13:26:51;74.53;50.56;96.81;;
49568;Laerm;35474;51.032;6.998;2023-11-19T13:29:18;73.06;58.28;94.95;;
49568;Laerm;35474;51.032;6.998;2023-11-19T13:31:44;82.72;48.91;104.21;;
49568;Laerm;35474;51.032;6.998;2023-11-19T13:34:11;70.97;46.35;96.26;;
49568;Laerm;35474;51.032;6.998;2023-11-19T13:36:37;70.20;47.16;93.06;;
49568;Laerm;35474;51.032;6.998;2023-11-19T13:39:05;73.74;53.04;93.01;;
49568;Laerm;35474;51.032;6.998;2023-11-19T13:41:32;68.34;50.56;87.11;;
49568;Laerm;35474;51.032;6.998;2023-11-19T13:43:58;67.41;49.66;87.96;;
49568;Laerm;35474;51.032;6.998;2023-11-19T13:46:25;71.62;50.17;93.20;;
49568;Laerm;35474;51.032;6.998;2023-11-19T13:48:52;70.10;50.49;90.61;;
49568;Laerm;35474;51.032;6.998;2023-11-19T13:51:19;76.61;51.49;96.92;;
49568;Laerm;35474;51.032;6.998;2023-11-19T13:53:45;71.88;50.37;93.78;;
49568;Laerm;35474;51.032;6.998;2023-11-19T13:56:16;69.48;46.50;93.70;;
49568;Laerm;35474;51.032;6.998;2023-11-19T13:58:43;69.75;54.19;94.39;;
49568;Laerm;35474;51.032;6.998;2023-11-19T14:01:09;73.50;49.10;93.96;;
49568;Laerm;35474;51.032;6.998;2023-11-19T14:03:36;72.36;51.61;96.49;;
49568;Laerm;35474;51.032;6.998;2023-11-19T14:06:03;75.91;51.36;98.66;;
49568;Laerm;35474;51.032;6.998;2023-11-19T14:08:30;65.33;52.68;80.61;;
49568;Laerm;35474;51.032;6.998;2023-11-19T14:10:57;76.03;52.58;98.95;;